Time;durP1;ratioP1;P1;durP2;ratioP2;P2;SDS_P1;SDS_P2;PMS_P1;PMS_P2;Temp;Humidity;BMP_temperature;BMP_pressure;BME280_temperature;BME280_humidity;BME280_pressure;Samples;Min_cycle;Max_cycle;Signal;HPM_P1;HPM_P2
2022/09/20 00:04:41;;;;;;;0.00;0.00;;;;;;;7.20;100.00;102470.44;10463344;28;20076;-76
2022/09/20 00:16:39;;;;;;;0.57;0.10;;;;;;;7.28;100.00;102474.41;10462792;28;20112;-77
2022/09/20 00:21:41;;;;;;;0.10;0.10;;;;;;;7.34;100.00;102473.00;10461745;28;20818;-78
2022/09/20 00:26:42;;;;;;;0.30;0.10;;;;;;;7.51;100.00;102472.41;10462585;28;20494;-77
2022/09/20 00:31:44;;;;;;;0.10;0.10;;;;;;;7.62;100.00;102471.44;10461334;28;20065;-78
2022/09/20 00:36:46;;;;;;;0.00;0.00;;;;;;;7.44;100.00;102476.28;10462235;28;20052;-77
2022/09/20 00:41:47;;;;;;;0.43;0.22;;;;;;;7.39;100.00;102492.16;10461731;28;20480;-78
2022/09/20 00:46:49;;;;;;;0.10;0.10;;;;;;;7.38;100.00;102496.38;10460502;28;20052;-77
2022/09/20 00:51:58;;;;;;;0.00;0.00;;;;;;;7.45;100.00;102500.25;10461561;28;20051;-77
2022/09/20 00:57:00;;;;;;;0.30;0.30;;;;;;;7.43;100.00;102510.41;10461431;28;20047;-77
2022/09/20 01:02:07;;;;;;;0.00;0.00;;;;;;;7.42;100.00;102512.84;10462363;28;20472;-78
2022/09/20 01:07:14;;;;;;;0.10;0.10;;;;;;;7.29;100.00;102509.50;10443100;28;20079;-77
2022/09/20 01:12:22;;;;;;;1.17;0.22;;;;;;;7.45;100.00;102515.63;10460643;28;20033;-77
2022/09/20 01:17:26;;;;;;;0.93;0.32;;;;;;;7.32;100.00;102510.50;10460622;28;20040;-77
2022/09/20 01:22:34;;;;;;;0.03;0.03;;;;;;;7.18;100.00;102517.28;10442796;28;20049;-77
2022/09/20 01:27:51;;;;;;;1.25;0.43;;;;;;;6.97;100.00;102510.81;10459146;28;20123;-77
2022/09/20 01:33:12;;;;;;;0.40;0.40;;;;;;;7.17;100.00;102524.09;10460144;28;20076;-78
2022/09/20 01:38:33;;;;;;;0.10;0.10;;;;;;;7.44;100.00;102526.66;10443500;28;20045;-77
2022/09/20 01:43:47;;;;;;;0.00;0.00;;;;;;;7.48;100.00;102538.91;10459384;28;20373;-77
2022/09/20 01:48:55;;;;;;;0.10;0.10;;;;;;;7.53;100.00;102537.53;10459388;28;20045;-77
2022/09/20 01:54:35;;;;;;;0.00;0.00;;;;;;;7.53;100.00;102534.97;10441386;28;20041;-77
2022/09/20 01:59:50;;;;;;;0.10;0.00;;;;;;;7.50;100.00;102527.06;10347045;28;20061;-78
2022/09/20 02:05:26;;;;;;;0.00;0.00;;;;;;;7.31;100.00;102522.41;10442084;28;20053;-78
2022/09/20 02:10:54;;;;;;;0.00;0.00;;;;;;;7.19;100.00;102509.69;10440516;28;20396;-77
2022/09/20 02:16:04;;;;;;;0.10;0.10;;;;;;;6.89;100.00;102506.84;10458240;28;20059;-76
2022/09/20 02:21:21;;;;;;;0.68;0.68;;;;;;;7.21;100.00;102508.09;10459194;28;20045;-77
2022/09/20 02:26:39;;;;;;;0.35;0.22;;;;;;;7.27;100.00;102513.63;10440027;28;20140;-78
2022/09/20 02:32:22;;;;;;;0.47;0.20;;;;;;;7.08;100.00;102516.66;10439860;28;20152;-77
2022/09/20 02:37:49;;;;;;;0.00;0.00;;;;;;;7.05;100.00;102519.03;10457541;28;20133;-77
2022/09/20 02:42:50;;;;;;;0.22;0.13;;;;;;;7.02;100.00;102534.19;10458472;28;20045;-76
2022/09/20 02:47:56;;;;;;;0.52;0.45;;;;;;;7.31;100.00;102545.47;10439373;28;20510;-77
2022/09/20 02:53:33;;;;;;;0.00;0.00;;;;;;;7.48;100.00;102551.75;10457728;28;20071;-77
2022/09/20 02:59:00;;;;;;;0.03;0.00;;;;;;;7.45;100.00;102554.09;10455714;28;20049;-76
2022/09/20 03:04:21;;;;;;;0.00;0.00;;;;;;;7.73;100.00;102558.44;10455515;28;20045;-77
2022/09/20 03:09:33;;;;;;;0.15;0.03;;;;;;;7.87;100.00;102560.19;10457032;28;20068;-77
2022/09/20 03:14:52;;;;;;;0.95;0.45;;;;;;;7.91;100.00;102567.31;10456681;28;20061;-77
2022/09/20 03:20:18;;;;;;;0.00;0.00;;;;;;;7.92;100.00;102569.09;10456644;28;20048;-77
2022/09/20 03:25:33;;;;;;;0.93;0.52;;;;;;;7.96;100.00;102574.41;10438796;28;20139;-78
2022/09/20 03:30:50;;;;;;;0.32;0.13;;;;;;;8.04;100.00;102573.22;10445733;28;20069;-77
2022/09/20 03:36:11;;;;;;;0.00;0.00;;;;;;;8.12;100.00;102566.91;10447904;28;20045;-77
2022/09/20 03:41:31;;;;;;;0.80;0.68;;;;;;;8.12;100.00;102559.19;10437720;28;20389;-77
2022/09/20 03:46:44;;;;;;;0.22;0.22;;;;;;;8.14;100.00;102570.47;10414184;28;20104;-77
2022/09/20 03:52:34;;;;;;;0.00;0.00;;;;;;;8.16;100.00;102568.84;10415184;28;20042;-77
2022/09/20 03:57:57;;;;;;;0.10;0.10;;;;;;;8.00;100.00;102568.69;10398284;28;20505;-77
2022/09/20 04:03:12;;;;;;;0.30;0.13;;;;;;;7.75;100.00;102577.38;10410494;28;20099;-77
2022/09/20 04:08:35;;;;;;;0.93;0.30;;;;;;;7.83;100.00;102562.47;10422204;28;20072;-77
2022/09/20 04:13:53;;;;;;;0.10;0.05;;;;;;;7.72;100.00;102570.38;10421648;28;20428;-78
2022/09/20 04:19:02;;;;;;;0.13;0.13;;;;;;;7.75;100.00;102567.13;10422806;28;20080;-78
2022/09/20 04:24:24;;;;;;;0.20;0.20;;;;;;;7.45;100.00;102554.09;10421339;28;20073;-78
2022/09/20 04:29:38;;;;;;;0.08;0.05;;;;;;;7.42;100.00;102554.78;10421266;28;20037;-77
2022/09/20 04:40:23;;;;;;;0.00;0.00;;;;;;;7.55;100.00;102564.19;10421103;28;20084;-77
2022/09/20 04:45:36;;;;;;;0.63;0.30;;;;;;;7.65;100.00;102567.31;10421398;28;20040;-77
2022/09/20 04:51:17;;;;;;;0.00;0.00;;;;;;;7.72;100.00;102566.91;10420392;28;20053;-77
2022/09/20 04:56:20;;;;;;;0.10;0.10;;;;;;;7.74;100.00;102583.31;10402392;28;20472;-77
2022/09/20 05:01:56;;;;;;;0.20;0.10;;;;;;;7.90;100.00;102588.63;10418671;28;20077;-78
2022/09/20 05:07:56;;;;;;;0.10;0.10;;;;;;;8.07;100.00;102599.09;10378410;28;20046;-76
2022/09/20 05:13:29;;;;;;;0.52;0.28;;;;;;;8.23;100.00;102614.66;10369654;28;20054;-76
2022/09/20 05:19:06;;;;;;;0.00;0.00;;;;;;;8.28;100.00;102624.34;10376504;28;20136;-77
2022/09/20 05:24:46;;;;;;;0.00;0.00;;;;;;;8.30;100.00;102633.03;10378103;28;20041;-77
2022/09/20 05:30:03;;;;;;;0.00;0.00;;;;;;;8.21;100.00;102629.09;10327641;28;20053;-77
2022/09/20 05:35:13;;;;;;;0.30;0.30;;;;;;;8.41;100.00;102634.59;10359999;28;20056;-77
2022/09/20 05:40:27;;;;;;;0.13;0.03;;;;;;;8.55;100.00;102641.50;10376440;28;20507;-77
2022/09/20 05:45:54;;;;;;;0.10;0.10;;;;;;;8.67;100.00;102640.50;10377901;28;20034;-77
2022/09/20 05:51:22;;;;;;;0.30;0.20;;;;;;;8.83;100.00;102632.91;10377399;28;20038;-76
2022/09/20 05:56:54;;;;;;;0.00;0.00;;;;;;;8.94;100.00;102632.69;10378123;28;20132;-77
2022/09/20 06:01:55;;;;;;;0.55;0.47;;;;;;;9.03;100.00;102622.97;10377819;28;20125;-77
2022/09/20 06:07:24;;;;;;;0.30;0.20;;;;;;;9.14;100.00;102619.34;10376594;28;20042;-76
2022/09/20 06:13:00;;;;;;;0.00;0.00;;;;;;;9.24;100.00;102607.03;10376443;28;20397;-77
2022/09/20 06:18:32;;;;;;;0.20;0.20;;;;;;;9.37;100.00;102614.66;10377183;28;20141;-77
2022/09/20 06:23:35;;;;;;;0.00;0.00;;;;;;;9.46;100.00;102616.88;10375908;28;20077;-77
2022/09/20 06:29:05;;;;;;;0.00;0.00;;;;;;;9.49;100.00;102612.78;10374901;28;20125;-77
2022/09/20 06:34:13;;;;;;;0.00;0.00;;;;;;;10.18;100.00;102611.44;10376034;28;20417;-77
2022/09/20 06:44:42;;;;;;;1.45;0.20;;;;;;;11.33;100.00;102505.72;10375242;28;20042;-77
2022/09/20 06:49:46;;;;;;;0.03;0.03;;;;;;;11.22;100.00;102424.31;10374230;28;20046;-78
2022/09/20 06:54:54;;;;;;;0.08;0.08;;;;;;;11.89;100.00;102385.25;10373736;28;20080;-78
2022/09/20 06:59:56;;;;;;;0.10;0.05;;;;;;;11.21;100.00;102386.41;10376124;28;20041;-79
2022/09/20 07:04:58;;;;;;;0.38;0.28;;;;;;;11.08;100.00;102401.31;10374617;28;20050;-78
2022/09/20 07:09:59;;;;;;;0.20;0.20;;;;;;;11.23;100.00;102405.44;10357418;28;20589;-78
2022/09/20 07:15:01;;;;;;;0.17;0.05;;;;;;;11.54;100.00;102401.72;10374638;28;20041;-78
2022/09/20 07:20:03;;;;;;;0.15;0.08;;;;;;;11.59;100.00;102410.53;10356901;28;20049;-78
2022/09/20 07:25:05;;;;;;;0.60;0.28;;;;;;;11.39;100.00;102396.75;10374705;28;20125;-79
2022/09/20 07:30:07;;;;;;;0.00;0.00;;;;;;;11.62;100.00;102405.53;10373136;28;20140;-79
2022/09/20 07:35:10;;;;;;;0.17;0.17;;;;;;;11.72;100.00;102412.91;10375333;28;20096;-79
2022/09/20 07:40:13;;;;;;;0.10;0.10;;;;;;;11.86;100.00;102395.44;10380692;28;20056;-79
2022/09/20 07:45:15;;;;;;;0.00;0.00;;;;;;;11.88;100.00;102396.38;10381034;28;20046;-79
2022/09/20 07:50:18;;;;;;;0.00;0.00;;;;;;;11.99;100.00;102391.72;10381860;28;20128;-78
2022/09/20 07:55:19;;;;;;;0.00;0.00;;;;;;;11.88;100.00;102382.56;10382712;28;20042;-78
2022/09/20 08:00:22;;;;;;;0.00;0.00;;;;;;;12.89;100.00;102381.63;10365460;28;20117;-79
2022/09/20 08:05:24;;;;;;;0.22;0.22;;;;;;;13.16;100.00;102361.16;10381139;28;20524;-79
2022/09/20 08:10:26;;;;;;;0.10;0.10;;;;;;;12.63;100.00;102356.50;10382114;28;20046;-79
2022/09/20 08:15:28;;;;;;;0.00;0.00;;;;;;;12.56;100.00;102363.94;10382154;28;20088;-79
2022/09/20 08:20:29;;;;;;;1.85;0.88;;;;;;;12.75;100.00;102360.41;10380821;28;20486;-79
2022/09/20 08:25:31;;;;;;;0.03;0.03;;;;;;;13.24;100.00;102351.97;10380555;28;20054;-79
2022/09/20 08:30:33;;;;;;;0.22;0.10;;;;;;;12.93;100.00;102360.25;10362886;28;20473;-79
2022/09/20 08:35:35;;;;;;;0.00;0.00;;;;;;;12.97;100.00;102357.84;10385983;28;20073;-78
2022/09/20 08:40:38;;;;;;;0.15;0.15;;;;;;;13.07;100.00;102337.53;10411178;28;20045;-79
2022/09/20 08:45:40;;;;;;;0.00;0.00;;;;;;;13.20;100.00;102359.56;10392795;28;20042;-79
2022/09/20 08:50:42;;;;;;;0.00;0.00;;;;;;;13.17;100.00;102349.97;10377842;28;20053;-78
2022/09/20 08:55:44;;;;;;;0.00;0.00;;;;;;;13.11;100.00;102324.75;10379709;28;20062;-79
2022/09/20 09:00:46;;;;;;;0.00;0.00;;;;;;;13.30;100.00;102331.50;10379401;28;20046;-79
2022/09/20 09:05:53;;;;;;;0.03;0.03;;;;;;;13.46;100.00;102326.94;10361373;28;20393;-79
2022/09/20 09:10:58;;;;;;;0.00;0.00;;;;;;;13.81;100.00;102329.94;10361203;28;20473;-79
2022/09/20 09:16:05;;;;;;;0.00;0.00;;;;;;;14.24;100.00;102330.50;10378654;28;20453;-79
2022/09/20 09:21:09;;;;;;;0.00;0.00;;;;;;;14.82;100.00;102310.81;10363194;28;20469;-80
2022/09/20 09:26:17;;;;;;;0.00;0.00;;;;;;;14.70;100.00;102300.91;10377292;28;20096;-79
2022/09/20 09:31:24;;;;;;;0.00;0.00;;;;;;;14.88;100.00;102300.59;10361276;28;20523;-79
2022/09/20 09:36:26;;;;;;;0.00;0.00;;;;;;;15.19;100.00;102305.84;10360304;28;20054;-80
2022/09/20 09:41:34;;;;;;;0.00;0.00;;;;;;;14.64;100.00;102315.34;10376281;28;20046;-79
2022/09/20 09:46:38;;;;;;;0.00;0.00;;;;;;;14.65;100.00;102306.75;10376510;28;20061;-79
2022/09/20 09:52:00;;;;;;;0.45;0.38;;;;;;;14.96;100.00;102308.63;10377291;28;20042;-79
2022/09/20 09:57:23;;;;;;;0.10;0.10;;;;;;;14.81;100.00;102303.84;10377359;28;20048;-80
2022/09/20 10:02:54;;;;;;;0.00;0.00;;;;;;;15.40;100.00;102302.97;10379324;28;20041;-80
2022/09/20 10:08:14;;;;;;;0.03;0.00;;;;;;;15.20;100.00;102307.56;10405973;28;20547;-80
2022/09/20 10:13:33;;;;;;;0.00;0.00;;;;;;;14.83;100.00;102304.78;10405793;28;20133;-80
2022/09/20 10:19:11;;;;;;;0.00;0.00;;;;;;;15.44;100.00;102294.44;10408453;28;20362;-80
2022/09/20 10:24:51;;;;;;;0.00;0.00;;;;;;;15.33;100.00;102290.66;10407318;28;20118;-80
2022/09/20 10:30:03;;;;;;;0.00;0.00;;;;;;;16.06;100.00;102284.81;10401778;28;20065;-80
2022/09/20 10:35:21;;;;;;;0.10;0.00;;;;;;;15.86;100.00;102290.41;10410401;28;20513;-80
2022/09/20 10:46:27;;;;;;;0.00;0.00;;;;;;;15.59;100.00;102295.69;10409312;28;20042;-80
2022/09/20 10:52:01;;;;;;;0.00;0.00;;;;;;;15.57;100.00;102292.19;10408804;28;20059;-81
2022/09/20 10:57:44;;;;;;;0.00;0.00;;;;;;;17.33;100.00;102280.75;10409228;28;20053;-80
2022/09/20 11:03:32;;;;;;;0.00;0.00;;;;;;;16.30;100.00;102294.94;10331208;28;20085;-80
2022/09/20 11:08:37;;;;;;;0.00;0.00;;;;;;;15.17;100.00;102298.00;10419882;28;20507;-80
2022/09/20 11:13:57;;;;;;;0.05;0.00;;;;;;;17.67;100.00;102280.53;10417463;28;20053;-80
2022/09/20 11:19:17;;;;;;;;;;;;;;;16.69;100.00;102278.53;10423407;28;20141;-80
2022/09/20 11:24:31;;;;;;;0.00;0.00;;;;;;;15.49;100.00;102287.66;10410809;28;20007;-81
2022/09/20 11:29:39;;;;;;;0.10;0.00;;;;;;;15.20;100.00;102286.81;10409648;28;20438;-81
2022/09/20 11:34:50;;;;;;;0.00;0.00;;;;;;;16.59;100.00;102285.25;10418555;28;20120;-81
2022/09/20 11:39:53;;;;;;;0.00;0.00;;;;;;;17.42;100.00;102280.09;10414522;28;20140;-81
2022/09/20 11:44:55;;;;;;;0.10;0.10;;;;;;;16.44;100.00;102295.28;10403138;28;20500;-81
2022/09/20 11:50:34;;;;;;;0.15;0.15;;;;;;;15.69;100.00;102292.50;10401898;28;20042;-80
2022/09/20 11:56:04;;;;;;;0.00;0.00;;;;;;;15.50;100.00;102297.22;10393641;28;20127;-80
2022/09/20 12:01:12;;;;;;;0.00;0.00;;;;;;;15.31;100.00;102294.91;10402815;28;20125;-80
2022/09/20 12:06:28;;;;;;;0.00;0.00;;;;;;;15.10;100.00;102301.25;10403613;28;20072;-79
2022/09/20 12:11:37;;;;;;;0.00;0.00;;;;;;;14.82;100.00;102303.00;10410218;28;20052;-79
2022/09/20 12:16:45;;;;;;;0.00;0.00;;;;;;;14.77;100.00;102307.19;10418552;28;20041;-79
2022/09/20 12:22:03;;;;;;;0.08;0.00;;;;;;;14.89;100.00;102312.75;10410110;28;20046;-79
2022/09/20 12:27:26;;;;;;;0.00;0.00;;;;;;;14.59;100.00;102305.75;10392429;28;20133;-79
2022/09/20 12:32:39;;;;;;;0.00;0.00;;;;;;;14.54;100.00;102315.09;10390133;28;20046;-78
2022/09/20 12:37:41;;;;;;;0.00;0.00;;;;;;;14.68;100.00;102318.13;10408812;28;20047;-78
2022/09/20 12:42:42;;;;;;;0.00;0.00;;;;;;;15.73;100.00;102304.75;10395402;28;20149;-78
2022/09/20 12:47:53;;;;;;;0.00;0.00;;;;;;;16.11;100.00;102302.31;10415080;28;20046;-79
2022/09/20 12:52:57;;;;;;;0.30;0.30;;;;;;;16.16;100.00;102294.59;10411550;28;20036;-78
2022/09/20 12:58:01;;;;;;;0.00;0.00;;;;;;;16.39;100.00;102291.69;10395942;28;20053;-78
2022/09/20 13:03:22;;;;;;;0.00;0.00;;;;;;;16.35;100.00;102295.94;10413091;28;20120;-78
2022/09/20 13:08:27;;;;;;;0.00;0.00;;;;;;;15.99;100.00;102302.88;10412993;28;20107;-78
2022/09/20 13:13:40;;;;;;;0.03;0.03;;;;;;;15.38;100.00;102297.75;10396851;28;20050;-78
2022/09/20 13:18:42;;;;;;;0.00;0.00;;;;;;;15.31;100.00;102305.28;10412425;28;20052;-79
2022/09/20 13:23:53;;;;;;;0.00;0.00;;;;;;;15.05;100.00;102306.28;10396245;28;20050;-79
2022/09/20 13:28:57;;;;;;;0.00;0.00;;;;;;;16.37;100.00;102299.47;10395792;28;20176;-78
2022/09/20 13:34:18;;;;;;;0.00;0.00;;;;;;;16.60;100.00;102293.94;10395953;28;20044;-78
2022/09/20 13:39:27;;;;;;;0.00;0.00;;;;;;;16.78;100.00;102286.56;10411169;28;20084;-79
2022/09/20 13:44:33;;;;;;;0.13;0.13;;;;;;;16.12;100.00;102296.25;10413323;28;20124;-79
2022/09/20 13:49:41;;;;;;;0.13;0.10;;;;;;;16.54;100.00;102296.38;10426307;28;20045;-79
2022/09/20 13:54:44;;;;;;;0.00;0.00;;;;;;;15.77;100.00;102292.72;10408947;28;20884;-79
2022/09/20 13:59:47;;;;;;;0.00;0.00;;;;;;;16.17;100.00;102297.25;10411941;28;20073;-79
2022/09/20 14:04:53;;;;;;;0.00;0.00;;;;;;;16.19;100.00;102294.69;10395111;28;20128;-78
2022/09/20 14:09:55;;;;;;;0.00;0.00;;;;;;;16.23;100.00;102287.84;10412354;28;20644;-78
2022/09/20 14:14:57;;;;;;;0.00;0.00;;;;;;;16.19;100.00;102294.69;10412242;28;20057;-78
2022/09/20 14:19:59;;;;;;;0.00;0.00;;;;;;;16.11;100.00;102291.00;10411354;28;20461;-78
2022/09/20 14:25:24;;;;;;;0.00;0.00;;;;;;;15.99;100.00;102291.56;10393545;28;20404;-79
2022/09/20 14:30:28;;;;;;;0.47;0.38;;;;;;;15.84;100.00;102292.94;10410827;28;20117;-78
2022/09/20 14:35:30;;;;;;;0.17;0.00;;;;;;;15.82;100.00;102297.19;10408085;28;20481;-78
2022/09/20 14:40:42;;;;;;;0.10;0.10;;;;;;;15.45;100.00;102298.78;10408815;28;20059;-78
2022/09/20 14:45:52;;;;;;;0.00;0.00;;;;;;;16.22;100.00;102296.47;10391456;28;20286;-78
2022/09/20 14:51:20;;;;;;;0.00;0.00;;;;;;;16.22;100.00;102296.47;10422503;28;20045;-78
2022/09/20 14:56:32;;;;;;;0.00;0.00;;;;;;;16.90;100.00;102279.84;10411234;28;20109;-77
2022/09/20 15:01:36;;;;;;;0.00;0.00;;;;;;;17.07;100.00;102282.81;10415020;28;20065;-77
2022/09/20 15:06:38;;;;;;;0.00;0.00;;;;;;;17.03;100.00;102287.09;10446752;28;20037;-77
2022/09/20 15:11:40;;;;;;;0.00;0.00;;;;;;;17.06;100.00;102281.06;10437319;28;20037;-77
2022/09/20 15:16:41;;;;;;;0.00;0.00;;;;;;;15.97;100.00;102290.69;10393365;28;20080;-78
2022/09/20 15:21:43;;;;;;;0.00;0.00;;;;;;;15.45;100.00;102297.91;10408371;28;20165;-78
2022/09/20 15:26:45;;;;;;;0.00;0.00;;;;;;;15.29;100.00;102299.19;10408720;28;20128;-78
2022/09/20 15:31:47;;;;;;;0.00;0.00;;;;;;;14.96;100.00;102307.75;10409492;28;20124;-77
2022/09/20 15:36:49;;;;;;;0.20;0.20;;;;;;;14.82;100.00;102305.59;10392244;28;20037;-76
2022/09/20 15:41:56;;;;;;;0.00;0.00;;;;;;;14.85;100.00;102316.09;10408003;28;20045;-76
2022/09/20 15:46:57;;;;;;;0.00;0.00;;;;;;;14.75;100.00;102316.63;10411203;28;20132;-75
2022/09/20 15:52:00;;;;;;;0.00;0.00;;;;;;;14.77;100.00;102314.97;10428639;28;20444;-75
2022/09/20 15:57:02;;;;;;;0.30;0.15;;;;;;;14.44;100.00;102313.03;10404716;28;20654;-76
2022/09/20 16:02:04;;;;;;;0.00;0.00;;;;;;;14.55;100.00;102319.44;10414048;28;20049;-76
2022/09/20 16:07:06;;;;;;;0.00;0.00;;;;;;;14.47;100.00;102320.91;10416802;28;20049;-76
2022/09/20 16:12:08;;;;;;;0.00;0.00;;;;;;;14.60;100.00;102320.47;10416545;28;20045;-76
2022/09/20 16:17:09;;;;;;;0.00;0.00;;;;;;;14.86;100.00;102327.34;10415185;28;20055;-77
2022/09/20 16:22:11;;;;;;;0.32;0.32;;;;;;;14.88;100.00;102336.94;10415492;28;20079;-77
2022/09/20 16:27:13;;;;;;;0.20;0.10;;;;;;;14.58;100.00;102331.63;10415676;28;20128;-77
2022/09/20 16:32:15;;;;;;;0.00;0.00;;;;;;;15.02;100.00;102331.28;10414850;28;20407;-77
2022/09/20 16:37:17;;;;;;;0.00;0.00;;;;;;;14.92;100.00;102324.94;10415464;28;20416;-77
2022/09/20 16:42:19;;;;;;;0.00;0.00;;;;;;;14.90;100.00;102335.28;10409706;28;20400;-77
2022/09/20 16:47:23;;;;;;;0.00;0.00;;;;;;;14.57;100.00;102346.28;10412688;28;20103;-77
2022/09/20 16:52:26;;;;;;;0.00;0.00;;;;;;;14.17;100.00;102352.75;10416646;28;20041;-77
2022/09/20 16:57:38;;;;;;;0.43;0.30;;;;;;;13.81;100.00;102350.66;10417802;28;20049;-77
2022/09/20 17:02:41;;;;;;;0.45;0.20;;;;;;;14.00;100.00;102359.94;10411598;28;20492;-77
2022/09/20 17:07:48;;;;;;;0.00;0.00;;;;;;;14.00;100.00;102361.66;10403633;28;20408;-77
2022/09/20 17:12:56;;;;;;;0.30;0.08;;;;;;;13.90;100.00;102373.41;10410449;28;20049;-77
2022/09/20 17:17:57;;;;;;;0.85;0.22;;;;;;;13.69;100.00;102377.00;10411167;28;20037;-77
2022/09/20 17:23:00;;;;;;;0.00;0.00;;;;;;;13.60;100.00;102387.88;10411169;28;20487;-77
2022/09/20 17:28:01;;;;;;;0.90;0.45;;;;;;;12.91;100.00;102399.00;10409214;28;20128;-77
2022/09/20 17:33:07;;;;;;;0.00;0.00;;;;;;;12.84;100.00;102425.44;10409475;28;20249;-77
2022/09/20 17:38:09;;;;;;;0.43;0.10;;;;;;;12.74;100.00;102425.88;10407571;28;20057;-77
2022/09/20 17:43:10;;;;;;;0.00;0.00;;;;;;;12.30;100.00;102431.81;10395016;28;20501;-76
2022/09/20 17:48:13;;;;;;;0.00;0.00;;;;;;;12.25;100.00;102469.47;10408916;28;20053;-76
2022/09/20 17:53:15;;;;;;;0.00;0.00;;;;;;;12.00;100.00;102483.00;10394217;28;20065;-77
2022/09/20 17:58:16;;;;;;;0.00;0.00;;;;;;;11.81;100.00;102504.47;10411455;28;20471;-77
2022/09/20 18:03:18;;;;;;;0.00;0.00;;;;;;;11.58;100.00;102512.03;10409675;28;20034;-76
2022/09/20 18:08:20;;;;;;;0.00;0.00;;;;;;;11.34;100.00;102511.75;10409586;28;20212;-76
2022/09/20 18:13:21;;;;;;;0.00;0.00;;;;;;;11.16;100.00;102532.38;10411354;28;20548;-77
2022/09/20 18:18:23;;;;;;;0.00;0.00;;;;;;;11.00;100.00;102541.91;10410469;28;20085;-77
2022/09/20 18:23:25;;;;;;;0.30;0.10;;;;;;;10.87;100.00;102544.69;10391696;28;20060;-76
2022/09/20 18:28:27;;;;;;;0.00;0.00;;;;;;;10.69;100.00;102550.66;10396767;28;20038;-77
2022/09/20 18:33:30;;;;;;;0.17;0.17;;;;;;;10.57;100.00;102571.53;10410132;28;20506;-76
2022/09/20 18:38:32;;;;;;;0.10;0.05;;;;;;;10.42;100.00;102583.63;10399163;28;20132;-77
2022/09/20 18:43:34;;;;;;;0.00;0.00;;;;;;;10.27;100.00;102601.66;10402553;28;20374;-76
2022/09/20 18:48:38;;;;;;;0.00;0.00;;;;;;;10.10;100.00;102614.50;10415117;28;20061;-76
2022/09/20 18:53:40;;;;;;;0.20;0.00;;;;;;;9.82;100.00;102610.38;10417165;28;20496;-77
2022/09/20 18:58:43;;;;;;;0.20;0.10;;;;;;;9.69;100.00;102620.78;10399056;28;20065;-76
2022/09/20 19:03:54;;;;;;;0.00;0.00;;;;;;;9.47;100.00;102626.38;10388007;28;20042;-77
2022/09/20 19:09:06;;;;;;;0.00;0.00;;;;;;;9.45;100.00;102639.16;10393329;28;20081;-77
2022/09/20 19:14:36;;;;;;;0.00;0.00;;;;;;;9.40;100.00;102645.72;10390953;28;20133;-76
2022/09/20 19:20:15;;;;;;;0.30;0.30;;;;;;;9.32;100.00;102664.97;10399659;28;20042;-76
2022/09/20 19:25:42;;;;;;;0.00;0.00;;;;;;;9.25;100.00;102683.41;10410366;28;20045;-76
2022/09/20 19:30:46;;;;;;;0.00;0.00;;;;;;;9.15;100.00;102682.84;10407962;28;20065;-76
2022/09/20 19:35:50;;;;;;;0.13;0.10;;;;;;;9.06;100.00;102672.00;10417148;28;20098;-77
2022/09/20 19:41:16;;;;;;;0.00;0.00;;;;;;;8.94;100.00;102678.97;10403982;28;20044;-77
2022/09/20 19:46:38;;;;;;;0.00;0.00;;;;;;;8.69;100.00;102685.16;10403415;28;20128;-76
2022/09/20 19:51:42;;;;;;;0.00;0.00;;;;;;;8.64;100.00;102707.09;10427105;28;20083;-76
2022/09/20 19:56:53;;;;;;;0.00;0.00;;;;;;;8.53;100.00;102714.13;10418295;28;20112;-76
2022/09/20 20:01:56;;;;;;;0.00;0.00;;;;;;;8.29;100.00;102723.72;10442689;28;20140;-76
2022/09/20 20:07:16;;;;;;;0.00;0.00;;;;;;;8.32;100.00;102734.16;10428111;28;20037;-76
2022/09/20 20:12:30;;;;;;;0.00;0.00;;;;;;;8.25;100.00;102744.03;10404726;28;20132;-77
2022/09/20 20:18:07;;;;;;;0.10;0.00;;;;;;;8.23;100.00;102748.19;10405293;28;20095;-77
2022/09/20 20:23:54;;;;;;;0.00;0.00;;;;;;;8.16;100.00;102738.28;10390819;28;20058;-76
2022/09/20 20:28:56;;;;;;;0.00;0.00;;;;;;;8.05;100.00;102752.13;10417496;28;20099;-76
2022/09/20 20:33:57;;;;;;;0.13;0.10;;;;;;;8.02;100.00;102757.03;10417373;28;20444;-76
2022/09/20 20:38:58;;;;;;;0.00;0.00;;;;;;;7.93;100.00;102765.91;10417256;28;20124;-76
2022/09/20 20:44:04;;;;;;;0.00;0.00;;;;;;;7.89;100.00;102763.94;10415828;28;20038;-76
2022/09/20 20:49:06;;;;;;;0.00;0.00;;;;;;;7.78;100.00;102775.16;10429579;28;20564;-76
2022/09/20 20:54:09;;;;;;;0.35;0.05;;;;;;;7.72;100.00;102774.72;10430852;28;20532;-76
2022/09/20 20:59:10;;;;;;;0.00;0.00;;;;;;;7.60;100.00;102788.53;10429613;28;20124;-76
2022/09/20 21:04:14;;;;;;;0.00;0.00;;;;;;;7.57;100.00;102796.00;10417433;28;20075;-77
2022/09/20 21:09:15;;;;;;;0.00;0.00;;;;;;;7.48;100.00;102795.38;10416095;28;20056;-76
2022/09/20 21:14:17;;;;;;;0.00;0.00;;;;;;;7.39;100.00;102800.75;10416478;28;20049;-76
2022/09/20 21:19:18;;;;;;;0.03;0.00;;;;;;;7.38;100.00;102895.53;10415571;28;20556;-76
2022/09/20 21:24:20;;;;;;;0.00;0.00;;;;;;;7.22;100.00;102891.88;10400262;28;20087;-76
2022/09/20 21:29:21;;;;;;;0.00;0.00;;;;;;;7.21;100.00;102897.78;10426241;28;20129;-76
2022/09/20 21:34:23;;;;;;;0.05;0.05;;;;;;;7.12;100.00;102889.41;10421757;28;20073;-76
2022/09/20 21:39:25;;;;;;;0.00;0.00;;;;;;;7.07;100.00;102898.44;10415316;28;20054;-76
2022/09/20 21:44:30;;;;;;;0.00;0.00;;;;;;;6.91;100.00;102906.72;10418110;28;20481;-76
2022/09/20 21:49:31;;;;;;;0.00;0.00;;;;;;;7.05;100.00;102916.28;10417876;28;20076;-77
2022/09/20 21:54:34;;;;;;;0.00;0.00;;;;;;;7.06;100.00;102918.09;10414931;28;20112;-77
2022/09/20 21:59:36;;;;;;;0.00;0.00;;;;;;;7.10;100.00;102924.31;10414750;28;20111;-77
2022/09/20 22:04:38;;;;;;;0.10;0.10;;;;;;;7.08;100.00;102931.00;10416629;28;20129;-76
2022/09/20 22:09:42;;;;;;;0.00;0.00;;;;;;;7.11;100.00;102932.13;10381833;28;20095;-76
2022/09/20 22:14:44;;;;;;;0.05;0.05;;;;;;;7.11;100.00;102937.25;10414561;28;20136;-76
2022/09/20 22:19:46;;;;;;;0.00;0.00;;;;;;;7.13;100.00;102942.47;10421122;28;20385;-76
2022/09/20 22:24:48;;;;;;;0.20;0.15;;;;;;;7.23;100.00;102944.94;10414493;28;20116;-76
2022/09/20 22:29:49;;;;;;;0.52;0.32;;;;;;;7.14;100.00;102942.59;10412453;28;20471;-76
2022/09/20 22:34:51;;;;;;;0.00;0.00;;;;;;;7.18;100.00;102938.59;10423267;28;20109;-76
2022/09/20 22:39:53;;;;;;;0.00;0.00;;;;;;;7.05;100.00;102936.78;10415501;28;20049;-76
2022/09/20 22:44:54;;;;;;;0.00;0.00;;;;;;;7.05;100.00;102941.00;10423650;28;20043;-77
2022/09/20 22:49:56;;;;;;;0.00;0.00;;;;;;;7.10;100.00;102924.31;10438490;28;20081;-76
2022/09/20 22:54:57;;;;;;;0.00;0.00;;;;;;;7.19;100.00;102918.97;10412554;28;20136;-77
2022/09/20 22:59:59;;;;;;;0.00;0.00;;;;;;;7.18;100.00;102935.13;10413243;28;20119;-76
2022/09/20 23:05:00;;;;;;;0.00;0.00;;;;;;;7.15;100.00;102934.09;10412914;28;20069;-76
2022/09/20 23:10:02;;;;;;;0.22;0.10;;;;;;;7.26;100.00;102932.31;10412632;28;20072;-76
2022/09/20 23:15:05;;;;;;;0.00;0.00;;;;;;;7.25;100.00;102935.69;10411108;28;20052;-76
2022/09/20 23:20:08;;;;;;;0.30;0.20;;;;;;;7.11;100.00;102937.25;10411491;28;20049;-76
2022/09/20 23:25:10;;;;;;;0.30;0.28;;;;;;;7.06;100.00;102942.81;10410510;28;20137;-76
2022/09/20 23:30:11;;;;;;;0.00;0.00;;;;;;;7.04;100.00;102940.13;10411560;28;20037;-76
2022/09/20 23:35:13;;;;;;;0.00;0.00;;;;;;;6.98;100.00;102948.25;10414600;28;20040;-76
2022/09/20 23:40:14;;;;;;;0.00;0.00;;;;;;;7.02;100.00;102956.19;10412051;28;20049;-76
2022/09/20 23:45:16;;;;;;;0.30;0.30;;;;;;;6.96;100.00;102957.50;10407800;28;20069;-76
2022/09/20 23:50:18;;;;;;;0.05;0.05;;;;;;;6.86;100.00;102959.25;10400863;28;20535;-76
2022/09/20 23:55:20;;;;;;;0.15;0.15;;;;;;;6.71;100.00;102953.91;10410897;28;20116;-76
